Purmela, Texas
Current Conditions -  °F | °C
As of 2:15 PM on Wednesday 26 Nov 2014 (Local Time) from KGOP Reporting Station
Clear Clear  
Wind Chill: 66°   Ceiling: Unl
Heat Index: 66°   Visibility: 10mi
Dew Point: 30°   Wind: 0mph
Humidity: 26%   Direction: NA
Pressure: 30.2"   Gusts: NA
Location:  31.48°N, 97.96°W
Report Text: KGOP 262015Z AUTO 00000KT 10SM CLR 19/M01 A3020 RMK AO2 PWINO
Loading
Personal Weather Stations






























Interactive Weather Map New forecast layout! Learn more

10-Day Weather Forecast

Advertisements
Track Severe Weather on mobile